createdAt,value
2018-09-05T00:00:13.883Z,17.40
2018-09-05T00:01:13.807Z,17.43
2018-09-05T00:02:13.719Z,17.25
2018-09-05T00:03:13.647Z,17.36
2018-09-05T00:04:13.557Z,17.31
2018-09-05T00:05:13.487Z,17.31
2018-09-05T00:06:13.410Z,17.30
2018-09-05T00:07:13.320Z,17.28
2018-09-05T00:08:13.245Z,17.22
2018-09-05T00:09:13.158Z,17.22
2018-09-05T00:10:13.082Z,17.21
2018-09-05T00:11:13.008Z,17.25
2018-09-05T00:12:12.921Z,17.23
2018-09-05T00:13:12.846Z,17.23
2018-09-05T00:14:12.762Z,17.22
2018-09-05T00:15:12.685Z,17.18
2018-09-05T00:16:12.613Z,17.16
2018-09-05T00:17:12.534Z,17.23
2018-09-05T00:18:12.446Z,17.19
2018-09-05T00:19:12.365Z,17.22
2018-09-05T00:20:12.285Z,17.11
2018-09-05T00:21:12.211Z,17.15
2018-09-05T00:22:12.122Z,17.11
2018-09-05T00:23:12.047Z,17.21
2018-09-05T00:24:11.961Z,17.22
2018-09-05T00:25:11.885Z,17.19
2018-09-05T00:26:11.798Z,17.19
2018-09-05T00:27:11.736Z,17.12
2018-09-05T00:28:11.647Z,17.11
2018-09-05T00:29:11.565Z,17.16
2018-09-05T00:30:11.487Z,17.14
2018-09-05T00:31:11.398Z,17.15
2018-09-05T00:32:11.323Z,17.06
2018-09-05T00:33:11.248Z,17.15
2018-09-05T00:34:11.161Z,17.04
2018-09-05T00:35:11.089Z,17.06
2018-09-05T00:36:10.998Z,17.11
2018-09-05T00:37:10.923Z,17.08
2018-09-05T00:38:10.861Z,17.01
2018-09-05T00:39:10.762Z,17.03
2018-09-05T00:40:10.686Z,17.04
2018-09-05T00:41:10.598Z,17.00
2018-09-05T00:42:10.523Z,16.91
2018-09-05T00:43:10.437Z,16.93
2018-09-05T00:44:10.361Z,16.88
2018-09-05T00:45:10.287Z,16.83
2018-09-05T00:46:10.198Z,16.89
2018-09-05T00:47:10.125Z,16.85
2018-09-05T00:48:10.038Z,16.86
2018-09-05T00:49:09.963Z,16.93
2018-09-05T00:50:09.876Z,16.93
2018-09-05T00:51:09.800Z,16.88
2018-09-05T00:52:09.725Z,16.91
2018-09-05T00:53:09.639Z,16.89
2018-09-05T00:54:09.563Z,16.97
2018-09-05T00:55:09.476Z,16.79
2018-09-05T00:56:09.413Z,16.88
2018-09-05T00:57:09.325Z,16.79
2018-09-05T00:58:09.243Z,16.81
2018-09-05T00:59:09.163Z,16.79
2018-09-05T01:00:09.075Z,16.79
2018-09-05T01:01:09.001Z,16.73
2018-09-05T01:02:08.914Z,16.81
2018-09-05T01:03:08.839Z,16.76
2018-09-05T01:04:08.763Z,16.89
2018-09-05T01:05:08.676Z,16.76
2018-09-05T01:06:08.601Z,16.73
2018-09-05T01:07:08.514Z,16.73
2018-09-05T01:08:08.440Z,16.73
2018-09-05T01:09:08.352Z,16.70
2018-09-05T01:10:08.278Z,16.61
2018-09-05T01:11:08.201Z,16.57
2018-09-05T01:12:08.115Z,16.58
2018-09-05T01:13:08.041Z,16.53
2018-09-05T01:14:07.952Z,16.52
2018-09-05T01:15:07.878Z,16.58
2018-09-05T01:16:07.791Z,16.60
2018-09-05T01:17:07.716Z,16.56
2018-09-05T01:18:07.641Z,16.61
2018-09-05T01:19:07.554Z,16.50
2018-09-05T01:20:07.477Z,16.52
2018-09-05T01:21:07.391Z,16.53
2018-09-05T01:22:07.316Z,16.41
2018-09-05T01:23:07.244Z,16.35
2018-09-05T01:24:07.153Z,16.34
2018-09-05T01:25:07.078Z,16.46
2018-09-05T01:26:06.994Z,16.45
2018-09-05T01:27:06.916Z,16.38
2018-09-05T01:28:06.829Z,16.33
2018-09-05T01:29:06.754Z,16.39
2018-09-05T01:30:06.668Z,16.34
2018-09-05T01:31:06.592Z,16.42
2018-09-05T01:32:06.506Z,16.31
2018-09-05T01:33:06.429Z,16.23
2018-09-05T01:34:06.359Z,16.20
2018-09-05T01:35:06.268Z,16.24
2018-09-05T01:36:06.194Z,16.23
2018-09-05T01:37:06.106Z,16.23
2018-09-05T01:38:06.032Z,16.23
2018-09-05T01:39:05.944Z,16.23
2018-09-05T01:40:05.869Z,16.27
2018-09-05T01:41:05.794Z,16.25
2018-09-05T01:42:05.705Z,16.15
2018-09-05T01:43:05.630Z,16.12
2018-09-05T01:44:05.546Z,16.14
2018-09-05T01:45:05.469Z,16.09
2018-09-05T01:46:05.380Z,16.17
2018-09-05T01:47:05.319Z,16.15
2018-09-05T01:48:05.219Z,16.12
2018-09-05T01:49:05.144Z,16.11
2018-09-05T01:50:05.070Z,16.11
2018-09-05T01:51:04.982Z,16.11
2018-09-05T01:52:04.906Z,16.09
2018-09-05T01:53:04.819Z,16.20
2018-09-05T01:54:04.745Z,16.11
2018-09-05T01:55:04.657Z,16.00
2018-09-05T01:56:04.581Z,16.09
2018-09-05T01:57:04.501Z,16.04
2018-09-05T01:58:04.420Z,16.11
2018-09-05T01:59:04.347Z,16.11
2018-09-05T02:00:04.270Z,16.07
2018-09-05T02:01:04.183Z,16.07
2018-09-05T02:02:04.098Z,16.07
2018-09-05T02:03:04.021Z,16.15
2018-09-05T02:04:03.932Z,16.08
2018-09-05T02:05:03.858Z,16.01
2018-09-05T02:06:03.771Z,16.08
2018-09-05T02:07:03.697Z,16.01
2018-09-05T02:08:03.609Z,16.08
2018-09-05T02:09:03.533Z,16.05
2018-09-05T02:10:03.461Z,16.04
2018-09-05T02:11:03.372Z,16.05
2018-09-05T02:12:03.298Z,16.02
2018-09-05T02:13:03.210Z,15.96
2018-09-05T02:14:03.134Z,16.05
2018-09-05T02:15:03.047Z,16.04
2018-09-05T02:16:02.972Z,16.02
2018-09-05T02:17:02.884Z,15.97
2018-09-05T02:18:02.810Z,16.01
2018-09-05T02:19:02.733Z,15.94
2018-09-05T02:20:02.650Z,15.97
2018-09-05T02:21:02.572Z,15.93
2018-09-05T02:22:02.487Z,15.93
2018-09-05T02:23:02.410Z,15.93
2018-09-05T02:24:02.322Z,15.87
2018-09-05T02:25:02.250Z,15.84
2018-09-05T02:26:02.161Z,15.86
2018-09-05T02:27:02.084Z,15.86
2018-09-05T02:28:01.998Z,15.86
2018-09-05T02:29:01.923Z,15.90
2018-09-05T02:30:01.836Z,15.92
2018-09-05T02:31:01.761Z,15.86
2018-09-05T02:32:01.674Z,15.89
2018-09-05T02:33:01.600Z,15.86
2018-09-05T02:34:01.525Z,15.90
2018-09-05T02:35:01.435Z,15.97
2018-09-05T02:36:01.361Z,16.02
2018-09-05T02:37:01.276Z,16.01
2018-09-05T02:38:01.201Z,16.04
2018-09-05T02:39:01.115Z,16.00
2018-09-05T02:40:01.036Z,16.02
2018-09-05T02:41:00.953Z,16.11
2018-09-05T02:42:00.874Z,16.11
2018-09-05T02:43:00.791Z,16.08
2018-09-05T02:44:00.712Z,16.11
2018-09-05T02:45:00.636Z,16.12
2018-09-05T02:46:00.555Z,16.25
2018-09-05T02:47:00.479Z,16.23
2018-09-05T02:48:00.388Z,16.39
2018-09-05T02:49:00.314Z,16.34
2018-09-05T02:50:00.226Z,16.34
2018-09-05T02:51:00.156Z,16.43
2018-09-05T02:52:00.063Z,16.42
2018-09-05T02:52:59.987Z,16.46
2018-09-05T02:53:59.901Z,16.35
2018-09-05T02:54:59.826Z,16.45
2018-09-05T02:55:59.751Z,16.41
2018-09-05T02:56:59.663Z,16.48
2018-09-05T02:57:59.589Z,16.45
2018-09-05T02:58:59.501Z,16.46
2018-09-05T02:59:59.427Z,16.46
2018-09-05T03:00:59.407Z,16.46
2018-09-05T03:01:59.263Z,16.43
2018-09-05T03:02:59.179Z,16.53
2018-09-05T03:03:59.102Z,16.50
2018-09-05T03:04:59.013Z,16.53
2018-09-05T03:05:58.942Z,16.58
2018-09-05T03:06:58.852Z,16.53
2018-09-05T03:07:58.777Z,16.58
2018-09-05T03:08:58.703Z,16.63
2018-09-05T03:09:58.614Z,16.60
2018-09-05T03:10:58.539Z,16.60
2018-09-05T03:11:58.452Z,16.45
2018-09-05T03:12:58.378Z,16.57
2018-09-05T03:13:58.290Z,16.50
2018-09-05T03:14:58.215Z,16.58
2018-09-05T03:15:58.128Z,16.63
2018-09-05T03:16:58.054Z,16.57
2018-09-05T03:17:57.978Z,16.52
2018-09-05T03:18:57.890Z,16.58
2018-09-05T03:19:57.816Z,16.57
2018-09-05T03:20:57.729Z,16.63
2018-09-05T03:21:57.654Z,16.61
2018-09-05T03:22:57.568Z,16.66
2018-09-05T03:23:57.491Z,16.50
2018-09-05T03:24:57.405Z,16.50
2018-09-05T03:25:57.329Z,16.49
2018-09-05T03:26:57.255Z,16.50
2018-09-05T03:27:57.167Z,16.52
2018-09-05T03:28:57.092Z,16.57
2018-09-05T03:29:57.007Z,16.66
2018-09-05T03:30:56.931Z,16.64
2018-09-05T03:31:56.841Z,16.60
2018-09-05T03:32:56.816Z,16.56
2018-09-05T03:33:56.694Z,16.49
2018-09-05T03:34:56.606Z,16.53
2018-09-05T03:35:56.531Z,16.64
2018-09-05T03:36:56.442Z,16.57
2018-09-05T03:37:56.369Z,16.67
2018-09-05T03:38:56.280Z,16.68
2018-09-05T03:39:56.206Z,16.68
2018-09-05T03:40:56.120Z,16.63
2018-09-05T03:41:56.044Z,16.66
2018-09-05T03:42:55.969Z,16.57
2018-09-05T03:43:55.883Z,16.57
2018-09-05T03:44:55.807Z,16.66
2018-09-05T03:45:55.719Z,16.63
2018-09-05T03:46:55.646Z,16.67
2018-09-05T03:47:55.557Z,16.70
2018-09-05T03:48:55.482Z,16.70
2018-09-05T03:49:55.408Z,16.73
2018-09-05T03:50:55.320Z,16.68
2018-09-05T03:51:55.246Z,16.78
2018-09-05T03:52:55.163Z,16.81
2018-09-05T03:53:55.083Z,16.76
2018-09-05T03:54:54.995Z,16.75
2018-09-05T03:55:54.920Z,16.85
2018-09-05T03:56:54.845Z,16.83
2018-09-05T03:57:54.758Z,16.82
2018-09-05T03:58:54.683Z,16.88
2018-09-05T03:59:54.595Z,16.96
2018-09-05T04:00:54.520Z,16.86
2018-09-05T04:01:54.444Z,16.83
2018-09-05T04:02:54.359Z,16.85
2018-09-05T04:03:54.283Z,16.97
2018-09-05T04:04:54.198Z,16.85
2018-09-05T04:05:54.122Z,16.75
2018-09-05T04:06:54.045Z,16.85
2018-09-05T04:07:53.959Z,16.88
2018-09-05T04:08:53.887Z,16.89
2018-09-05T04:09:53.796Z,16.91
2018-09-05T04:10:53.722Z,16.93
2018-09-05T04:11:53.635Z,16.88
2018-09-05T04:12:53.560Z,16.98
2018-09-05T04:13:53.485Z,16.96
2018-09-05T04:14:53.396Z,16.97
2018-09-05T04:15:53.323Z,16.98
2018-09-05T04:16:53.235Z,16.97
2018-09-05T04:17:53.161Z,16.98
2018-09-05T04:18:53.089Z,16.91
2018-09-05T04:19:52.998Z,17.00
2018-09-05T04:20:52.910Z,16.88
2018-09-05T04:21:52.886Z,17.03
2018-09-05T04:22:52.761Z,17.03
2018-09-05T04:23:52.673Z,17.03
2018-09-05T04:24:52.598Z,16.93
2018-09-05T04:25:52.512Z,16.98
2018-09-05T04:26:52.436Z,17.00
2018-09-05T04:27:52.350Z,16.98
2018-09-05T04:28:52.274Z,17.01
2018-09-05T04:29:52.247Z,17.11
2018-09-05T04:30:52.112Z,16.97
2018-09-05T04:31:52.041Z,17.01
2018-09-05T04:32:51.949Z,16.98
2018-09-05T04:33:51.873Z,17.01
2018-09-05T04:34:51.800Z,17.11
2018-09-05T04:35:51.712Z,17.16
2018-09-05T04:36:51.638Z,17.12
2018-09-05T04:37:51.549Z,17.19
2018-09-05T04:38:51.474Z,17.15
2018-09-05T04:39:51.401Z,17.16
2018-09-05T04:40:51.314Z,17.15
2018-09-05T04:41:51.237Z,17.14
2018-09-05T04:42:51.150Z,17.19
2018-09-05T04:43:51.075Z,17.14
2018-09-05T04:44:50.988Z,17.11
2018-09-05T04:45:50.913Z,17.19
2018-09-05T04:46:50.839Z,17.23
2018-09-05T04:47:50.752Z,17.19
2018-09-05T04:48:50.682Z,17.23
2018-09-05T04:49:50.589Z,17.26
2018-09-05T04:50:50.515Z,17.36
2018-09-05T04:51:50.439Z,17.26
2018-09-05T04:52:50.353Z,17.28
2018-09-05T04:53:50.276Z,17.38
2018-09-05T04:54:50.193Z,17.36
2018-09-05T04:55:50.115Z,17.31
2018-09-05T04:56:50.039Z,17.41
2018-09-05T04:57:49.961Z,17.40
2018-09-05T04:58:49.877Z,17.40
2018-09-05T04:59:49.791Z,17.41
2018-09-05T05:00:49.717Z,17.41
2018-09-05T05:01:49.640Z,17.40
2018-09-05T05:02:49.566Z,17.48
2018-09-05T05:03:49.482Z,17.41
2018-09-05T05:04:49.404Z,17.48
2018-09-05T05:05:49.346Z,17.43
2018-09-05T05:06:49.241Z,17.44
2018-09-05T05:07:49.166Z,17.40
2018-09-05T05:08:49.077Z,17.49
2018-09-05T05:09:48.994Z,17.51
2018-09-05T05:10:48.917Z,17.51
2018-09-05T05:11:48.830Z,17.51
2018-09-05T05:12:48.767Z,17.49
2018-09-05T05:13:48.723Z,17.52
2018-09-05T05:14:48.598Z,17.58
2018-09-05T05:15:48.516Z,17.62
2018-09-05T05:16:48.441Z,17.66
2018-09-05T05:17:48.368Z,17.63
2018-09-05T05:18:48.279Z,17.64
2018-09-05T05:19:48.196Z,17.77
2018-09-05T05:20:48.118Z,17.74
2018-09-05T05:21:48.043Z,17.79
2018-09-05T05:22:47.956Z,17.84
2018-09-05T05:23:47.879Z,17.86
2018-09-05T05:24:47.793Z,17.84
2018-09-05T05:25:47.719Z,17.95
2018-09-05T05:26:47.643Z,17.99
2018-09-05T05:27:47.557Z,17.96
2018-09-05T05:28:47.480Z,18.00
2018-09-05T05:29:47.405Z,17.96
2018-09-05T05:30:47.318Z,17.95
2018-09-05T05:31:47.244Z,17.95
2018-09-05T05:32:47.284Z,17.97
2018-09-05T05:33:47.080Z,18.02
2018-09-05T05:34:47.008Z,18.00
2018-09-05T05:35:46.919Z,18.03
2018-09-05T05:36:46.844Z,18.12
2018-09-05T05:37:46.770Z,18.23
2018-09-05T05:38:46.681Z,18.12
2018-09-05T05:39:46.606Z,18.25
2018-09-05T05:40:46.520Z,18.26
2018-09-05T05:41:46.451Z,18.21
2018-09-05T05:42:46.370Z,18.23
2018-09-05T05:43:46.285Z,18.23
2018-09-05T05:44:46.211Z,18.18
2018-09-05T05:45:46.132Z,18.26
2018-09-05T05:46:46.092Z,18.26
2018-09-05T05:47:45.971Z,18.26
2018-09-05T05:48:45.883Z,18.35
2018-09-05T05:49:45.808Z,18.33
2018-09-05T05:50:45.733Z,18.44
2018-09-05T05:51:45.647Z,18.41
2018-09-05T05:52:45.574Z,18.42
2018-09-05T05:53:45.496Z,18.47
2018-09-05T05:54:45.409Z,18.44
2018-09-05T05:55:45.333Z,18.33
2018-09-05T05:56:45.260Z,18.47
2018-09-05T05:57:45.171Z,18.37
2018-09-05T05:58:45.098Z,18.42
2018-09-05T05:59:45.022Z,18.44
2018-09-05T06:00:44.971Z,18.36
2018-09-05T06:01:44.859Z,18.44
2018-09-05T06:02:44.784Z,18.36
2018-09-05T06:03:44.698Z,18.41
2018-09-05T06:04:44.623Z,18.44
2018-09-05T06:05:44.547Z,18.41
2018-09-05T06:06:44.460Z,18.39
2018-09-05T06:07:44.385Z,18.35
2018-09-05T06:08:44.310Z,18.41
2018-09-05T06:09:44.223Z,18.45
2018-09-05T06:10:44.149Z,18.57
2018-09-05T06:11:44.062Z,18.55
2018-09-05T06:12:43.985Z,18.52
2018-09-05T06:13:43.909Z,18.60
2018-09-05T06:14:43.835Z,18.70
2018-09-05T06:15:43.748Z,18.72
2018-09-05T06:16:43.674Z,18.66
2018-09-05T06:17:43.607Z,18.70
2018-09-05T06:18:43.511Z,18.66
2018-09-05T06:19:43.436Z,18.62
2018-09-05T06:20:43.360Z,18.72
2018-09-05T06:21:43.274Z,18.63
2018-09-05T06:22:43.206Z,18.60
2018-09-05T06:23:43.113Z,18.63
2018-09-05T06:24:43.037Z,18.66
2018-09-05T06:25:42.975Z,18.67
2018-09-05T06:26:42.886Z,18.70
2018-09-05T06:27:42.823Z,18.63
2018-09-05T06:28:42.725Z,18.75
2018-09-05T06:29:42.651Z,18.78
2018-09-05T06:30:42.636Z,18.69
2018-09-05T06:31:42.487Z,18.72
2018-09-05T06:32:42.412Z,18.76
2018-09-05T06:33:42.325Z,18.72
2018-09-05T06:34:42.251Z,18.80
2018-09-05T06:35:42.175Z,18.90
2018-09-05T06:36:42.102Z,18.87
2018-09-05T06:37:42.013Z,18.87
2018-09-05T06:38:41.938Z,18.87
2018-09-05T06:39:41.862Z,18.80
2018-09-05T06:40:41.777Z,18.76
2018-09-05T06:41:41.701Z,18.78
2018-09-05T06:42:41.619Z,18.73
2018-09-05T06:43:41.538Z,18.73
2018-09-05T06:44:41.463Z,18.80
2018-09-05T06:45:41.378Z,18.78
2018-09-05T06:46:41.301Z,18.85
2018-09-05T06:47:41.230Z,18.70
2018-09-05T06:48:41.154Z,18.69
2018-09-05T06:49:41.064Z,18.70
2018-09-05T06:50:40.989Z,18.82
2018-09-05T06:51:40.914Z,18.82
2018-09-05T06:52:40.828Z,18.81
2018-09-05T06:53:40.753Z,18.82
2018-09-05T06:54:40.681Z,18.82
2018-09-05T06:55:40.590Z,18.87
2018-09-05T06:56:40.515Z,18.82
2018-09-05T06:57:40.440Z,18.76
2018-09-05T06:58:40.358Z,18.66
2018-09-05T06:59:40.278Z,18.85
2018-09-05T07:00:40.203Z,18.91
2018-09-05T07:01:40.119Z,19.00
2018-09-05T07:02:40.041Z,19.13
2018-09-05T07:03:40.005Z,19.18
2018-09-05T07:04:39.892Z,19.08
2018-09-05T07:05:39.805Z,19.22
2018-09-05T07:06:39.733Z,19.32
2018-09-05T07:07:39.654Z,19.43
2018-09-05T07:08:39.567Z,19.51
2018-09-05T07:09:39.495Z,19.62
2018-09-05T07:10:39.420Z,19.69
2018-09-05T07:11:39.331Z,19.71
2018-09-05T07:12:39.257Z,19.78
2018-09-05T07:13:39.184Z,20.05
2018-09-05T07:14:39.182Z,20.17
2018-09-05T07:15:39.017Z,20.10
2018-09-05T07:16:38.944Z,20.02
2018-09-05T07:17:38.943Z,20.16
2018-09-05T07:18:38.796Z,20.16
2018-09-05T07:19:38.705Z,20.11
2018-09-05T07:20:38.630Z,20.14
2018-09-05T07:21:38.556Z,20.05
2018-09-05T07:22:38.481Z,19.83
2018-09-05T07:23:38.395Z,19.86
2018-09-05T07:24:38.319Z,19.87
2018-09-05T07:25:38.243Z,19.86
2018-09-05T07:26:38.167Z,19.99
2018-09-05T07:27:38.147Z,20.14
2018-09-05T07:28:38.011Z,20.16
2018-09-05T07:29:37.932Z,20.33
2018-09-05T07:30:37.998Z,20.32
2018-09-05T07:31:37.781Z,20.23
2018-09-05T07:32:37.693Z,20.14
2018-09-05T07:33:37.618Z,20.39
2018-09-05T07:34:37.544Z,20.62
2018-09-05T07:35:37.494Z,20.99
2018-09-05T07:36:37.383Z,21.38
2018-09-05T07:37:37.312Z,21.25
2018-09-05T07:38:37.232Z,21.34
2018-09-05T07:39:37.146Z,21.04
2018-09-05T07:40:37.068Z,20.76
2018-09-05T07:41:36.994Z,20.48
2018-09-05T07:42:36.918Z,20.38
2018-09-05T07:43:36.849Z,20.48
2018-09-05T07:44:36.772Z,20.48
2018-09-05T07:45:36.683Z,20.42
2018-09-05T07:46:36.608Z,20.51
2018-09-05T07:47:36.533Z,20.54
2018-09-05T07:48:36.463Z,20.66
2018-09-05T07:49:36.383Z,20.72
2018-09-05T07:50:36.328Z,20.85
2018-09-05T07:51:36.233Z,20.99
2018-09-05T07:52:36.145Z,21.64
2018-09-05T07:53:36.071Z,22.42
2018-09-05T07:54:35.998Z,22.64
2018-09-05T07:55:35.920Z,22.62
2018-09-05T07:56:35.834Z,22.97
2018-09-05T07:57:35.758Z,22.72
2018-09-05T07:58:35.684Z,21.90
2018-09-05T07:59:35.609Z,21.72
2018-09-05T08:00:35.533Z,21.88
2018-09-05T08:01:35.461Z,22.68
2018-09-05T08:02:35.385Z,23.31
2018-09-05T08:03:35.309Z,23.54
2018-09-05T08:04:35.222Z,23.97
2018-09-05T08:05:35.159Z,24.43
2018-09-05T08:06:35.072Z,24.81
2018-09-05T08:07:34.996Z,25.36
2018-09-05T08:08:34.922Z,25.09
2018-09-05T08:09:34.846Z,25.38
2018-09-05T08:10:34.772Z,25.23
2018-09-05T08:11:34.702Z,24.93
2018-09-05T08:12:34.622Z,25.02
2018-09-05T08:13:34.547Z,24.30
2018-09-05T08:14:34.472Z,24.57
2018-09-05T08:15:34.398Z,25.09
2018-09-05T08:16:34.326Z,25.38
2018-09-05T08:17:34.262Z,25.10
2018-09-05T08:18:34.173Z,25.06
2018-09-05T08:19:34.098Z,24.76
2018-09-05T08:20:34.024Z,24.47
2018-09-05T08:21:33.961Z,24.49
2018-09-05T08:22:33.887Z,24.71
2018-09-05T08:23:33.814Z,24.37
2018-09-05T08:24:33.762Z,24.20
2018-09-05T08:25:33.662Z,24.28
2018-09-05T08:26:33.588Z,23.97
2018-09-05T08:27:33.523Z,23.68
2018-09-05T08:28:33.437Z,23.27
2018-09-05T08:29:33.362Z,23.38
2018-09-05T08:30:33.291Z,23.94
2018-09-05T08:31:33.223Z,24.58
2018-09-05T08:32:33.162Z,24.46
2018-09-05T08:33:33.075Z,24.08
2018-09-05T08:34:33.003Z,24.52
2018-09-05T08:35:33.236Z,25.17
2018-09-05T08:36:33.126Z,25.09
2018-09-05T08:37:32.946Z,24.58
2018-09-05T08:38:32.884Z,25.09
2018-09-05T08:39:32.625Z,24.83
2018-09-05T08:40:32.563Z,25.14
2018-09-05T08:41:32.582Z,25.67
2018-09-05T08:42:32.416Z,26.07
2018-09-05T08:43:32.339Z,25.55
2018-09-05T08:44:32.366Z,26.23
2018-09-05T08:45:32.246Z,26.18
2018-09-05T08:46:32.126Z,26.07
2018-09-05T08:47:32.093Z,26.07
2018-09-05T08:48:31.999Z,25.99
2018-09-05T08:49:31.902Z,25.70
2018-09-05T08:50:31.826Z,25.91
2018-09-05T08:51:31.765Z,26.02
2018-09-05T08:52:31.677Z,26.18
2018-09-05T08:53:31.624Z,26.09
2018-09-05T08:54:31.540Z,26.05
2018-09-05T08:55:31.472Z,26.23
2018-09-05T08:56:31.406Z,26.60
2018-09-05T08:57:31.327Z,26.75
2018-09-05T08:58:31.252Z,26.33
2018-09-05T08:59:31.180Z,26.20
2018-09-05T09:00:31.102Z,26.12
2018-09-05T09:01:31.043Z,25.79
2018-09-05T09:02:30.967Z,25.47
2018-09-05T09:03:30.893Z,25.75
2018-09-05T09:04:30.862Z,25.62
2018-09-05T09:05:30.754Z,25.40
2018-09-05T09:06:30.680Z,25.65
2018-09-05T09:07:30.604Z,25.87
2018-09-05T09:08:30.531Z,25.72
2018-09-05T09:09:30.471Z,25.52
2018-09-05T09:10:30.393Z,25.70
2018-09-05T09:11:30.321Z,25.70
2018-09-05T09:12:30.255Z,25.42
2018-09-05T09:13:30.180Z,25.47
2018-09-05T09:14:30.105Z,25.69
2018-09-05T09:15:30.031Z,24.93
2018-09-05T09:16:29.969Z,24.47
2018-09-05T09:17:29.894Z,24.20
2018-09-05T09:18:29.818Z,24.37
2018-09-05T09:19:29.744Z,24.45
2018-09-05T09:20:29.681Z,24.39
2018-09-05T09:21:29.606Z,24.45
2018-09-05T09:22:29.531Z,24.55
2018-09-05T09:23:29.456Z,24.55
2018-09-05T09:24:29.381Z,24.57
2018-09-05T09:25:29.319Z,25.09
2018-09-05T09:26:29.245Z,25.62
2018-09-05T09:27:29.171Z,25.95
2018-09-05T09:28:29.094Z,26.35
2018-09-05T09:29:29.020Z,26.63
2018-09-05T09:30:28.944Z,26.73
2018-09-05T09:31:28.882Z,26.20
2018-09-05T09:32:28.807Z,26.06
2018-09-05T09:33:28.732Z,25.95
2018-09-05T09:34:28.657Z,25.38
2018-09-05T09:35:28.629Z,25.18
2018-09-05T09:36:28.509Z,24.65
2018-09-05T09:37:28.435Z,24.62
2018-09-05T09:38:28.370Z,24.76
2018-09-05T09:39:28.298Z,24.50
2018-09-05T09:40:28.221Z,24.77
2018-09-05T09:41:28.146Z,25.06
2018-09-05T09:42:28.070Z,25.20
2018-09-05T09:43:27.997Z,25.30
2018-09-05T09:44:27.920Z,25.13
2018-09-05T09:45:27.847Z,24.67
2018-09-05T09:46:27.813Z,24.71
2018-09-05T09:47:27.708Z,24.96
2018-09-05T09:48:27.633Z,24.78
2018-09-05T09:49:27.559Z,24.62
2018-09-05T09:50:27.486Z,24.46
2018-09-05T09:51:27.422Z,24.57
2018-09-05T09:52:27.334Z,24.67
2018-09-05T09:53:27.260Z,24.71
2018-09-05T09:54:27.185Z,24.77
2018-09-05T09:55:27.134Z,24.78
2018-09-05T09:56:27.037Z,24.80
2018-09-05T09:57:26.972Z,24.93
2018-09-05T09:58:26.898Z,25.24
2018-09-05T09:59:26.823Z,24.88
2018-09-05T10:00:26.752Z,25.05
2018-09-05T10:01:26.675Z,25.35
2018-09-05T10:02:26.599Z,25.24
2018-09-05T10:03:26.558Z,25.13
2018-09-05T10:04:26.449Z,25.24
2018-09-05T10:05:26.373Z,25.23
2018-09-05T10:06:26.310Z,25.30
2018-09-05T10:07:26.249Z,24.98
2018-09-05T10:08:26.161Z,25.09
2018-09-05T10:09:26.085Z,25.27
2018-09-05T10:10:26.068Z,25.17
2018-09-05T10:11:25.938Z,24.91
2018-09-05T10:12:25.861Z,24.84
2018-09-05T10:13:25.786Z,24.98
2018-09-05T10:14:25.712Z,25.18
2018-09-05T10:15:25.636Z,25.09
2018-09-05T10:16:25.561Z,25.40
2018-09-05T10:17:25.490Z,25.38
2018-09-05T10:18:25.425Z,25.20
2018-09-05T10:19:25.349Z,25.30
2018-09-05T10:20:25.276Z,25.58
2018-09-05T10:21:25.211Z,25.82
2018-09-05T10:22:25.178Z,26.07
2018-09-05T10:23:25.051Z,26.25
2018-09-05T10:24:24.976Z,26.30
2018-09-05T10:25:24.906Z,25.99
2018-09-05T10:26:24.826Z,26.01
2018-09-05T10:27:24.752Z,26.02
2018-09-05T10:28:24.676Z,26.18
2018-09-05T10:29:24.613Z,26.21
2018-09-05T10:30:24.538Z,26.09
2018-09-05T10:31:24.463Z,26.33
2018-09-05T10:32:24.388Z,26.30
2018-09-05T10:33:24.313Z,26.50
2018-09-05T10:34:24.252Z,26.54
2018-09-05T10:35:24.164Z,26.72
2018-09-05T10:36:24.090Z,26.58
2018-09-05T10:37:24.028Z,26.55
2018-09-05T10:38:23.952Z,26.45
2018-09-05T10:39:23.877Z,26.44
2018-09-05T10:40:23.803Z,26.48
2018-09-05T10:41:23.727Z,26.51
2018-09-05T10:42:23.652Z,26.25
2018-09-05T10:43:23.593Z,25.90
2018-09-05T10:44:23.549Z,25.52
2018-09-05T10:45:23.441Z,25.17
2018-09-05T10:46:23.365Z,25.35
2018-09-05T10:47:23.290Z,25.80
2018-09-05T10:48:23.216Z,25.94
2018-09-05T10:49:23.154Z,26.05
2018-09-05T10:50:23.080Z,26.62
2018-09-05T10:51:23.004Z,26.77
2018-09-05T10:52:22.932Z,26.88
2018-09-05T10:53:22.855Z,27.07
2018-09-05T10:54:22.779Z,26.69
2018-09-05T10:55:22.716Z,26.54
2018-09-05T10:56:22.655Z,26.07
2018-09-05T10:57:22.566Z,25.50
2018-09-05T10:58:22.492Z,25.25
2018-09-05T10:59:22.417Z,25.08
2018-09-05T11:00:22.355Z,24.87
2018-09-05T11:01:22.281Z,24.96
2018-09-05T11:02:22.205Z,25.06
2018-09-05T11:03:22.131Z,25.13
2018-09-05T11:04:22.126Z,25.23
2018-09-05T11:05:21.997Z,25.70
2018-09-05T11:06:21.918Z,26.60
2018-09-05T11:07:21.857Z,27.43
2018-09-05T11:08:21.767Z,27.82
2018-09-05T11:09:21.707Z,28.44
2018-09-05T11:10:21.645Z,28.68
2018-09-05T11:11:21.557Z,28.81
2018-09-05T11:12:21.481Z,28.80
2018-09-05T11:13:21.407Z,28.68
2018-09-05T11:14:21.344Z,28.89
2018-09-05T11:15:21.268Z,29.00
2018-09-05T11:16:21.194Z,29.27
2018-09-05T11:17:21.119Z,29.26
2018-09-05T11:18:21.057Z,29.37
2018-09-05T11:19:20.982Z,29.82
2018-09-05T11:20:20.908Z,29.76
2018-09-05T11:21:20.913Z,30.34
2018-09-05T11:22:20.769Z,30.60
2018-09-05T11:23:20.694Z,30.80
2018-09-05T11:24:20.633Z,31.10
2018-09-05T11:25:20.558Z,30.34
2018-09-05T11:26:20.494Z,30.15
2018-09-05T11:27:20.420Z,30.94
2018-09-05T11:28:20.359Z,31.28
2018-09-05T11:29:20.299Z,30.35
2018-09-05T11:30:20.224Z,30.92
2018-09-05T11:31:20.161Z,31.58
2018-09-05T11:32:20.083Z,32.04
2018-09-05T11:33:20.021Z,30.94
2018-09-05T11:34:19.959Z,29.70
2018-09-05T11:35:19.883Z,29.08
2018-09-05T11:36:19.820Z,28.58
2018-09-05T11:37:20.009Z,27.96
2018-09-05T11:38:19.687Z,27.62
2018-09-05T11:39:19.620Z,27.22
2018-09-05T11:40:19.546Z,26.84
2018-09-05T11:41:19.483Z,26.57
2018-09-05T11:42:19.421Z,26.37
2018-09-05T11:43:19.346Z,26.21
2018-09-05T11:44:19.284Z,25.95
2018-09-05T11:45:19.211Z,25.77
2018-09-05T11:46:19.146Z,25.77
2018-09-05T11:47:19.071Z,25.85
2018-09-05T11:48:19.010Z,25.90
2018-09-05T11:49:18.934Z,25.76
2018-09-05T11:50:18.872Z,25.36
2018-09-05T11:51:18.796Z,25.25
2018-09-05T11:52:18.725Z,25.23
2018-09-05T11:53:18.662Z,25.27
2018-09-05T11:54:18.586Z,25.27
2018-09-05T11:55:18.523Z,25.24
2018-09-05T11:56:18.447Z,25.30
2018-09-05T11:57:18.401Z,25.36
2018-09-05T11:58:18.310Z,25.35
2018-09-05T11:59:18.236Z,25.38
2018-09-05T12:00:18.162Z,25.09
2018-09-05T12:01:18.087Z,25.05
2018-09-05T12:02:18.028Z,24.93
2018-09-05T12:03:17.949Z,24.98
2018-09-05T12:04:17.873Z,24.88
2018-09-05T12:05:17.799Z,24.95
2018-09-05T12:06:17.742Z,24.61
2018-09-05T12:07:17.661Z,24.71
2018-09-05T12:08:17.586Z,24.83
2018-09-05T12:09:17.531Z,24.91
2018-09-05T12:10:17.437Z,25.00
2018-09-05T12:11:17.377Z,25.10
2018-09-05T12:12:17.391Z,25.06
2018-09-05T12:13:17.224Z,25.09
2018-09-05T12:14:17.150Z,25.14
2018-09-05T12:15:17.076Z,25.25
2018-09-05T12:16:17.012Z,25.27
2018-09-05T12:17:16.925Z,25.33
2018-09-05T12:18:16.862Z,25.42
2018-09-05T12:19:16.789Z,25.55
2018-09-05T12:20:16.713Z,25.51
2018-09-05T12:21:16.639Z,25.46
2018-09-05T12:22:16.567Z,25.67
2018-09-05T12:23:16.488Z,25.65
2018-09-05T12:24:16.413Z,25.65
2018-09-05T12:25:16.350Z,25.79
2018-09-05T12:26:16.275Z,25.82
2018-09-05T12:27:16.200Z,25.87
2018-09-05T12:28:16.139Z,25.90
2018-09-05T12:29:16.052Z,25.97
2018-09-05T12:30:15.976Z,26.06
2018-09-05T12:31:15.901Z,26.06
2018-09-05T12:32:15.841Z,26.20
2018-09-05T12:33:15.764Z,26.26
2018-09-05T12:34:15.690Z,26.21
2018-09-05T12:35:15.614Z,26.17
2018-09-05T12:36:15.540Z,25.99
2018-09-05T12:37:15.468Z,26.05
2018-09-05T12:38:15.422Z,25.95
2018-09-05T12:39:15.328Z,25.65
2018-09-05T12:40:15.251Z,25.97
2018-09-05T12:41:15.177Z,26.89
2018-09-05T12:42:15.101Z,27.97
2018-09-05T12:43:15.027Z,27.93
2018-09-05T12:44:14.955Z,28.30
2018-09-05T12:45:14.891Z,27.78
2018-09-05T12:46:14.816Z,27.77
2018-09-05T12:47:14.741Z,27.63
2018-09-05T12:48:14.668Z,27.13
2018-09-05T12:49:14.605Z,27.00
2018-09-05T12:50:14.529Z,26.72
2018-09-05T12:51:14.453Z,26.89